createdAt,value
2023-04-24T00:00:39.070Z,14.10
2023-04-24T00:03:06.939Z,14.16
2023-04-24T00:05:34.925Z,14.24
2023-04-24T00:08:02.854Z,14.32
2023-04-24T00:10:30.668Z,13.90
2023-04-24T00:12:58.413Z,13.79
2023-04-24T00:15:27.677Z,13.77
2023-04-24T00:17:55.648Z,13.74
2023-04-24T00:20:23.652Z,13.76
2023-04-24T00:22:51.471Z,14.00
2023-04-24T00:25:19.216Z,13.83
2023-04-24T00:27:47.137Z,13.86
2023-04-24T00:30:15.081Z,13.44
2023-04-24T00:32:44.223Z,13.23
2023-04-24T00:35:12.590Z,13.78
2023-04-24T00:37:40.381Z,13.89
2023-04-24T00:40:09.244Z,14.38
2023-04-24T00:42:37.171Z,13.71
2023-04-24T00:45:06.046Z,14.13
2023-04-24T00:47:35.611Z,13.77
2023-04-24T00:50:05.711Z,13.79
2023-04-24T00:52:34.022Z,13.67
2023-04-24T00:55:02.068Z,13.37
2023-04-24T00:57:30.317Z,13.57
2023-04-24T00:59:58.042Z,13.48
2023-04-24T01:02:27.421Z,13.49
2023-04-24T01:04:55.520Z,13.72
2023-04-24T01:07:24.695Z,13.67
2023-04-24T01:09:53.190Z,13.55
2023-04-24T01:12:21.615Z,13.97
2023-04-24T01:14:49.375Z,13.85
2023-04-24T01:17:17.269Z,13.09
2023-04-24T01:19:46.256Z,13.08
2023-04-24T01:22:16.089Z,13.50
2023-04-24T01:24:44.115Z,13.42
2023-04-24T01:27:12.835Z,13.23
2023-04-24T01:29:40.932Z,13.55
2023-04-24T01:32:09.067Z,13.20
2023-04-24T01:34:36.872Z,13.25
2023-04-24T01:37:05.994Z,13.21
2023-04-24T01:39:35.201Z,13.25
2023-04-24T01:42:03.373Z,13.21
2023-04-24T01:44:31.242Z,14.01
2023-04-24T01:46:59.341Z,13.58
2023-04-24T01:49:27.113Z,13.40
2023-04-24T01:51:54.928Z,13.52
2023-04-24T01:54:22.671Z,13.55
2023-04-24T01:56:52.146Z,13.90
2023-04-24T01:59:20.456Z,13.53
2023-04-24T02:01:48.296Z,13.57
2023-04-24T02:04:16.419Z,13.86
2023-04-24T02:06:44.364Z,13.68
2023-04-24T02:09:12.729Z,13.76
2023-04-24T02:11:40.429Z,13.62
2023-04-24T02:14:09.532Z,13.89
2023-04-24T02:16:37.312Z,13.31
2023-04-24T02:19:05.859Z,13.57
2023-04-24T02:21:33.880Z,13.34
2023-04-24T02:24:01.957Z,13.27
2023-04-24T02:26:29.733Z,13.73
2023-04-24T02:28:57.486Z,13.52
2023-04-24T02:31:26.740Z,13.19
2023-04-24T02:33:54.490Z,13.28
2023-04-24T02:36:22.265Z,13.13
2023-04-24T02:38:50.027Z,13.31
2023-04-24T02:41:17.760Z,13.69
2023-04-24T02:43:45.518Z,13.53
2023-04-24T02:46:13.341Z,13.26
2023-04-24T02:48:42.462Z,13.35
2023-04-24T02:51:10.880Z,13.52
2023-04-24T02:53:38.678Z,13.57
2023-04-24T02:56:06.751Z,12.94
2023-04-24T02:58:34.788Z,13.39
2023-04-24T03:01:02.561Z,13.47
2023-04-24T03:03:30.399Z,14.01
2023-04-24T03:06:00.118Z,13.58
2023-04-24T03:08:27.870Z,14.21
2023-04-24T03:10:55.560Z,13.86
2023-04-24T03:13:23.387Z,14.27
2023-04-24T03:15:51.162Z,14.51
2023-04-24T03:18:19.000Z,14.22
2023-04-24T03:20:48.498Z,13.47
2023-04-24T03:23:17.649Z,13.27
2023-04-24T03:25:45.375Z,13.30
2023-04-24T03:28:13.096Z,13.81
2023-04-24T03:30:40.878Z,13.67
2023-04-24T03:33:09.407Z,14.07
2023-04-24T03:35:37.245Z,13.90
2023-04-24T03:38:05.679Z,13.66
2023-04-24T03:40:35.601Z,13.76
2023-04-24T03:43:03.469Z,13.85
2023-04-24T03:45:31.279Z,13.75
2023-04-24T03:47:59.092Z,13.62
2023-04-24T03:50:27.703Z,13.71
2023-04-24T03:52:55.438Z,13.56
2023-04-24T03:55:23.146Z,13.68
2023-04-24T03:57:52.223Z,13.48
2023-04-24T04:00:20.472Z,13.55
2023-04-24T04:02:48.373Z,13.58
2023-04-24T04:05:16.409Z,13.62
2023-04-24T04:07:44.167Z,13.55
2023-04-24T04:10:12.292Z,13.76
2023-04-24T04:12:40.051Z,13.50
2023-04-24T04:15:09.680Z,13.70
2023-04-24T04:17:38.937Z,13.70
2023-04-24T04:20:10.366Z,13.68
2023-04-24T04:22:38.175Z,13.70
2023-04-24T04:25:06.562Z,13.79
2023-04-24T04:27:34.627Z,13.76
2023-04-24T04:30:05.625Z,13.89
2023-04-24T04:32:35.355Z,14.00
2023-04-24T04:35:04.174Z,13.84
2023-04-24T04:37:32.270Z,13.76
2023-04-24T04:40:00.098Z,13.76
2023-04-24T04:42:28.502Z,13.72
2023-04-24T04:44:57.089Z,13.93
2023-04-24T04:47:25.359Z,13.85
2023-04-24T04:49:54.473Z,14.03
2023-04-24T04:52:26.025Z,13.84
2023-04-24T04:54:53.766Z,13.63
2023-04-24T04:57:21.497Z,13.59
2023-04-24T04:59:49.392Z,14.23
2023-04-24T05:02:17.236Z,13.92
2023-04-24T05:04:45.375Z,14.23
2023-04-24T05:07:14.931Z,14.19
2023-04-24T05:09:42.868Z,14.27
2023-04-24T05:12:10.731Z,14.05
2023-04-24T05:14:38.439Z,14.23
2023-04-24T05:17:06.263Z,14.16
2023-04-24T05:19:37.030Z,14.09
2023-04-24T05:22:07.543Z,14.53
2023-04-24T05:24:36.597Z,14.56
2023-04-24T05:27:05.559Z,14.46
2023-04-24T05:29:34.196Z,14.59
2023-04-24T05:32:02.289Z,14.22
2023-04-24T05:34:30.032Z,14.40
2023-04-24T05:36:57.797Z,14.48
2023-04-24T05:39:26.043Z,14.46
2023-04-24T05:41:56.061Z,14.46
2023-04-24T05:44:23.728Z,14.32
2023-04-24T05:46:51.818Z,14.48
2023-04-24T05:49:19.565Z,14.56
2023-04-24T05:51:47.277Z,14.51
2023-04-24T05:54:15.103Z,14.55
2023-04-24T05:56:43.364Z,14.41
2023-04-24T05:59:12.470Z,15.25
2023-04-24T06:01:40.262Z,14.66
2023-04-24T06:04:08.225Z,14.74
2023-04-24T06:06:37.072Z,14.74
2023-04-24T06:09:05.828Z,15.10
2023-04-24T06:11:33.581Z,14.94
2023-04-24T06:14:01.272Z,15.47
2023-04-24T06:16:31.903Z,15.31
2023-04-24T06:18:59.666Z,15.29
2023-04-24T06:21:27.396Z,16.03
2023-04-24T06:23:57.018Z,15.98
2023-04-24T06:26:25.957Z,15.07
2023-04-24T06:28:54.722Z,15.91
2023-04-24T06:31:22.732Z,15.74
2023-04-24T06:33:51.926Z,15.72
2023-04-24T06:36:19.716Z,16.69
2023-04-24T06:38:47.560Z,16.39
2023-04-24T06:41:15.369Z,16.56
2023-04-24T06:43:43.096Z,16.61
2023-04-24T06:46:10.861Z,16.78
2023-04-24T06:48:38.689Z,15.99
2023-04-24T06:51:07.849Z,17.40
2023-04-24T06:53:36.052Z,17.28
2023-04-24T06:56:04.318Z,16.79
2023-04-24T06:58:32.911Z,16.33
2023-04-24T07:01:00.701Z,16.63
2023-04-24T07:03:28.618Z,16.51
2023-04-24T07:05:57.129Z,16.92
2023-04-24T07:08:26.396Z,16.72
2023-04-24T07:10:54.156Z,16.14
2023-04-24T07:13:21.859Z,17.11
2023-04-24T07:15:51.886Z,16.87
2023-04-24T07:18:19.677Z,17.32
2023-04-24T07:20:47.440Z,16.96
2023-04-24T07:23:15.433Z,16.69
2023-04-24T07:25:45.140Z,16.78
2023-04-24T07:28:12.905Z,17.11
2023-04-24T07:30:40.610Z,17.29
2023-04-24T07:33:08.476Z,17.76
2023-04-24T07:35:36.725Z,17.48
2023-04-24T07:38:04.524Z,17.21
2023-04-24T07:40:32.270Z,17.63
2023-04-24T07:43:01.467Z,17.27
2023-04-24T07:45:29.329Z,16.99
2023-04-24T07:47:57.131Z,16.92
2023-04-24T07:50:24.877Z,17.17
2023-04-24T07:52:52.612Z,17.05
2023-04-24T07:55:23.262Z,16.54
2023-04-24T07:57:52.055Z,17.27
2023-04-24T08:00:21.908Z,16.98
2023-04-24T08:02:49.949Z,17.36
2023-04-24T08:05:18.307Z,17.28
2023-04-24T08:07:47.228Z,17.04
2023-04-24T08:10:15.009Z,17.52
2023-04-24T08:12:43.222Z,17.40
2023-04-24T08:15:11.806Z,16.32
2023-04-24T08:17:41.356Z,17.36
2023-04-24T08:20:14.668Z,16.56
2023-04-24T08:22:42.703Z,17.10
2023-04-24T08:25:11.047Z,16.62
2023-04-24T08:27:39.802Z,16.62
2023-04-24T08:30:09.122Z,16.52
2023-04-24T08:32:40.060Z,16.78
2023-04-24T08:35:10.154Z,16.83
2023-04-24T08:37:38.400Z,16.61
2023-04-24T08:40:12.754Z,16.55
2023-04-24T08:42:41.559Z,17.00
2023-04-24T08:45:10.603Z,16.80
2023-04-24T08:47:41.878Z,16.44
2023-04-24T08:50:10.737Z,16.75
2023-04-24T08:52:38.623Z,16.60
2023-04-24T08:55:08.018Z,16.62
2023-04-24T08:57:36.959Z,16.52
2023-04-24T09:00:05.671Z,17.28
2023-04-24T09:02:35.381Z,16.99
2023-04-24T09:05:06.294Z,17.03
2023-04-24T09:07:37.616Z,16.90
2023-04-24T09:10:06.124Z,17.28
2023-04-24T09:12:34.134Z,16.91
2023-04-24T09:15:02.535Z,17.69
2023-04-24T09:17:30.557Z,16.94
2023-04-24T09:19:58.324Z,18.34
2023-04-24T09:22:27.574Z,17.86
2023-04-24T09:25:04.295Z,18.23
2023-04-24T09:27:32.981Z,17.79
2023-04-24T09:30:01.587Z,17.51
2023-04-24T09:32:31.024Z,17.91
2023-04-24T09:35:10.222Z,18.65
2023-04-24T09:37:40.564Z,18.75
2023-04-24T09:40:13.607Z,18.50
2023-04-24T09:42:41.503Z,18.34
2023-04-24T09:45:15.447Z,18.56
2023-04-24T09:47:44.684Z,19.74
2023-04-24T09:50:14.961Z,19.87
2023-04-24T09:52:45.949Z,19.21
2023-04-24T09:55:15.672Z,19.76
2023-04-24T09:57:53.762Z,19.78
2023-04-24T10:00:24.417Z,19.23
2023-04-24T10:02:54.150Z,19.51
2023-04-24T10:05:25.876Z,20.43
2023-04-24T10:07:59.095Z,20.99
2023-04-24T10:10:27.012Z,21.89
2023-04-24T10:12:55.224Z,19.28
2023-04-24T10:15:23.328Z,21.03
2023-04-24T10:17:53.624Z,21.08
2023-04-24T10:20:23.214Z,20.64
2023-04-24T10:22:52.933Z,19.82
2023-04-24T10:25:23.734Z,18.71
2023-04-24T10:27:53.538Z,18.29
2023-04-24T10:30:22.191Z,19.03
2023-04-24T10:32:50.024Z,18.57
2023-04-24T10:35:20.583Z,18.51
2023-04-24T10:37:52.427Z,18.07
2023-04-24T10:40:29.143Z,18.49
2023-04-24T10:42:59.082Z,19.32
2023-04-24T10:45:27.621Z,19.03
2023-04-24T10:47:59.367Z,18.86
2023-04-24T10:50:29.129Z,18.65
2023-04-24T10:53:08.088Z,18.88
2023-04-24T10:55:44.954Z,18.80
2023-04-24T10:58:13.123Z,18.80
2023-04-24T11:00:42.502Z,18.82
2023-04-24T11:03:26.020Z,18.68
2023-04-24T11:06:02.057Z,18.31
2023-04-24T11:08:35.205Z,18.16
2023-04-24T11:11:10.611Z,18.53
2023-04-24T11:14:07.387Z,18.91
2023-04-24T11:16:39.277Z,19.10
2023-04-24T11:19:09.445Z,18.41
2023-04-24T11:21:44.900Z,19.18
2023-04-24T11:24:29.972Z,19.72
2023-04-24T11:27:00.736Z,20.05
2023-04-24T11:29:45.489Z,19.54
2023-04-24T11:32:27.278Z,19.91
2023-04-24T11:34:56.620Z,19.35
2023-04-24T11:37:25.204Z,19.23
2023-04-24T11:39:54.470Z,19.69
2023-04-24T11:42:24.928Z,19.89
2023-04-24T11:44:55.345Z,19.19
2023-04-24T11:47:30.173Z,19.38
2023-04-24T11:49:58.123Z,19.68
2023-04-24T11:52:26.125Z,19.72
2023-04-24T11:54:53.927Z,20.18
2023-04-24T11:57:23.934Z,20.49
2023-04-24T11:59:51.921Z,20.05
2023-04-24T12:02:24.202Z,20.09
2023-04-24T12:04:52.808Z,21.68
2023-04-24T12:07:20.914Z,22.36
2023-04-24T12:09:52.620Z,21.03
2023-04-24T12:12:21.023Z,20.18
2023-04-24T12:14:56.439Z,19.59
2023-04-24T12:17:29.358Z,18.96
2023-04-24T12:20:01.038Z,18.94
2023-04-24T12:22:29.139Z,18.99
2023-04-24T12:25:04.223Z,19.24
2023-04-24T12:27:33.999Z,18.94
2023-04-24T12:30:05.923Z,18.70
2023-04-24T12:32:34.295Z,18.77
2023-04-24T12:35:02.050Z,18.18
2023-04-24T12:37:37.380Z,17.91
2023-04-24T12:40:08.189Z,17.81
2023-04-24T12:42:36.790Z,17.11
2023-04-24T12:45:08.141Z,16.66
2023-04-24T12:47:37.312Z,16.88
2023-04-24T12:50:05.577Z,16.55
2023-04-24T12:52:33.413Z,16.81
2023-04-24T12:55:02.851Z,16.41
2023-04-24T12:57:32.062Z,16.61
2023-04-24T13:00:00.815Z,16.44
2023-04-24T13:02:32.161Z,16.30
2023-04-24T13:05:01.017Z,16.07
2023-04-24T13:07:29.477Z,16.79
2023-04-24T13:09:58.814Z,17.02
2023-04-24T13:12:27.489Z,17.27
2023-04-24T13:14:55.421Z,17.02
2023-04-24T13:17:24.046Z,15.87
2023-04-24T13:19:57.350Z,16.72
2023-04-24T13:22:25.197Z,16.90
2023-04-24T13:24:53.013Z,16.38
2023-04-24T13:27:20.962Z,17.16
2023-04-24T13:29:48.701Z,17.35
2023-04-24T13:32:16.619Z,16.60
2023-04-24T13:34:44.839Z,17.36
2023-04-24T13:37:14.024Z,17.40
2023-04-24T13:39:43.358Z,17.46
2023-04-24T13:42:11.791Z,18.05
2023-04-24T13:44:39.705Z,19.72
2023-04-24T13:47:07.586Z,19.45
2023-04-24T13:49:35.322Z,20.14
2023-04-24T13:52:03.837Z,20.40
2023-04-24T13:54:33.794Z,19.13
2023-04-24T13:57:01.556Z,18.78
2023-04-24T13:59:29.422Z,19.54
2023-04-24T14:01:57.260Z,20.56
2023-04-24T14:04:25.265Z,19.89
2023-04-24T14:06:53.286Z,21.35
2023-04-24T14:09:21.006Z,23.22
2023-04-24T14:11:50.159Z,23.71
2023-04-24T14:14:17.975Z,22.15
2023-04-24T14:16:46.130Z,23.68
2023-04-24T14:19:13.873Z,23.55
2023-04-24T14:21:41.632Z,22.62
2023-04-24T14:24:10.369Z,23.31
2023-04-24T14:26:38.201Z,22.99
2023-04-24T14:29:14.064Z,22.25
2023-04-24T14:31:42.899Z,22.37
2023-04-24T14:34:11.206Z,23.27
2023-04-24T14:36:39.063Z,22.32
2023-04-24T14:39:07.980Z,20.68
2023-04-24T14:41:37.007Z,19.63
2023-04-24T14:44:05.136Z,19.06
2023-04-24T14:46:34.590Z,20.37
2023-04-24T14:49:02.419Z,19.15
2023-04-24T14:51:30.179Z,18.02
2023-04-24T14:53:58.514Z,19.03
2023-04-24T14:56:26.416Z,19.10
2023-04-24T14:58:54.700Z,18.69
2023-04-24T15:01:22.494Z,18.75
2023-04-24T15:03:52.320Z,18.57
2023-04-24T15:06:21.212Z,18.91
2023-04-24T15:08:50.434Z,18.35
2023-04-24T15:11:18.683Z,18.19
2023-04-24T15:13:47.361Z,18.02
2023-04-24T15:16:15.624Z,17.99
2023-04-24T15:18:43.527Z,17.85
2023-04-24T15:21:13.823Z,17.80
2023-04-24T15:23:41.543Z,18.34
2023-04-24T15:26:09.321Z,20.09
2023-04-24T15:28:37.058Z,21.27
2023-04-24T15:31:05.249Z,21.87
2023-04-24T15:33:33.009Z,20.97
2023-04-24T15:36:01.073Z,19.27
2023-04-24T15:38:30.242Z,18.96
2023-04-24T15:40:57.986Z,19.90
2023-04-24T15:43:25.850Z,20.98
2023-04-24T15:45:53.698Z,20.19
2023-04-24T15:48:21.469Z,20.64
2023-04-24T15:50:49.193Z,19.60
2023-04-24T15:53:22.057Z,19.93
2023-04-24T15:55:51.800Z,19.88
2023-04-24T15:58:21.456Z,20.02
2023-04-24T16:00:49.287Z,19.96
2023-04-24T16:03:17.184Z,19.21
2023-04-24T16:05:45.037Z,18.59
2023-04-24T16:08:14.227Z,19.17
2023-04-24T16:10:42.661Z,18.50
2023-04-24T16:13:11.759Z,18.70
2023-04-24T16:15:40.175Z,18.06
2023-04-24T16:18:08.081Z,19.12
2023-04-24T16:20:35.832Z,18.87
2023-04-24T16:23:03.761Z,17.77
2023-04-24T16:25:31.515Z,18.03
2023-04-24T16:27:59.335Z,18.37
2023-04-24T16:30:28.531Z,16.82
2023-04-24T16:32:56.298Z,17.35
2023-04-24T16:35:24.107Z,16.60
2023-04-24T16:37:51.910Z,16.88
2023-04-24T16:40:20.229Z,16.66
2023-04-24T16:42:48.677Z,16.39
2023-04-24T16:45:16.518Z,16.45
2023-04-24T16:47:45.780Z,16.46
2023-04-24T16:50:13.572Z,16.47
2023-04-24T16:52:41.339Z,16.69
2023-04-24T16:55:09.918Z,16.81
2023-04-24T16:57:38.038Z,15.75
2023-04-24T17:00:06.910Z,16.19
2023-04-24T17:02:34.709Z,16.27
2023-04-24T17:05:03.958Z,16.64
2023-04-24T17:07:32.114Z,16.74
2023-04-24T17:09:59.915Z,16.55
2023-04-24T17:12:27.739Z,16.04
2023-04-24T17:14:55.831Z,16.78
2023-04-24T17:17:25.484Z,17.33
2023-04-24T17:19:53.282Z,16.68
2023-04-24T17:22:22.429Z,16.29
2023-04-24T17:24:50.134Z,16.47
2023-04-24T17:27:17.825Z,16.53
2023-04-24T17:29:45.548Z,15.82
2023-04-24T17:32:13.448Z,15.57
2023-04-24T17:34:41.222Z,16.03
2023-04-24T17:37:09.069Z,15.96
2023-04-24T17:39:38.298Z,15.86
2023-04-24T17:42:06.323Z,16.09
2023-04-24T17:44:34.202Z,16.14
2023-04-24T17:47:02.091Z,15.84
2023-04-24T17:49:29.821Z,15.45
2023-04-24T17:51:57.580Z,15.87
2023-04-24T17:54:25.360Z,15.34
2023-04-24T17:56:54.867Z,15.70
2023-04-24T17:59:23.742Z,15.63
2023-04-24T18:01:51.714Z,16.11
2023-04-24T18:04:19.687Z,16.38
2023-04-24T18:06:47.647Z,16.19
2023-04-24T18:09:18.850Z,15.65
2023-04-24T18:11:46.709Z,15.81
2023-04-24T18:14:15.837Z,15.09
2023-04-24T18:16:43.553Z,14.95
2023-04-24T18:19:11.237Z,14.39
2023-04-24T18:21:38.965Z,14.48
2023-04-24T18:24:07.447Z,14.48
2023-04-24T18:26:35.174Z,14.25
2023-04-24T18:29:02.945Z,14.27
2023-04-24T18:31:32.555Z,14.63
2023-04-24T18:34:00.508Z,14.53
2023-04-24T18:36:28.304Z,13.73
2023-04-24T18:38:56.022Z,13.47
2023-04-24T18:41:23.767Z,12.74
2023-04-24T18:43:51.956Z,12.33
2023-04-24T18:46:19.823Z,12.72
2023-04-24T18:48:49.195Z,12.33
2023-04-24T18:51:17.211Z,12.18
2023-04-24T18:53:44.995Z,12.33
2023-04-24T18:56:13.082Z,12.57
2023-04-24T18:58:44.305Z,12.64
2023-04-24T19:01:12.142Z,12.47
2023-04-24T19:03:40.010Z,12.93
2023-04-24T19:06:09.149Z,12.26
2023-04-24T19:08:38.550Z,12.37
2023-04-24T19:11:06.396Z,12.64
2023-04-24T19:13:34.597Z,12.32
2023-04-24T19:16:02.378Z,11.84
2023-04-24T19:18:30.492Z,12.41
2023-04-24T19:20:58.981Z,11.77
2023-04-24T19:23:28.228Z,12.07
2023-04-24T19:25:56.028Z,11.76
2023-04-24T19:28:23.746Z,11.72
2023-04-24T19:30:51.511Z,11.71
2023-04-24T19:33:19.418Z,11.99
2023-04-24T19:35:47.237Z,11.73
2023-04-24T19:38:15.019Z,11.90
2023-04-24T19:40:44.222Z,11.68
2023-04-24T19:43:12.012Z,11.75
2023-04-24T19:45:39.772Z,11.66
2023-04-24T19:48:07.917Z,11.40
2023-04-24T19:50:36.039Z,11.60
2023-04-24T19:53:03.771Z,11.58
2023-04-24T19:55:31.563Z,11.87
2023-04-24T19:58:00.932Z,11.27
2023-04-24T20:00:28.705Z,11.37
2023-04-24T20:02:56.787Z,11.21
2023-04-24T20:05:24.732Z,11.23
2023-04-24T20:07:52.555Z,11.16
2023-04-24T20:10:20.298Z,11.34
2023-04-24T20:12:48.040Z,10.93
2023-04-24T20:15:17.181Z,11.85
2023-04-24T20:17:44.910Z,11.38
2023-04-24T20:20:13.496Z,11.11
2023-04-24T20:22:41.321Z,11.37
2023-04-24T20:25:11.535Z,11.60
2023-04-24T20:27:39.448Z,11.47
2023-04-24T20:30:12.792Z,11.59
2023-04-24T20:32:42.428Z,11.28
2023-04-24T20:35:11.937Z,11.31
2023-04-24T20:37:40.060Z,11.27
2023-04-24T20:40:09.895Z,11.29
2023-04-24T20:42:38.324Z,11.28
2023-04-24T20:45:07.931Z,11.36
2023-04-24T20:47:36.763Z,10.72
2023-04-24T20:50:07.128Z,11.59
2023-04-24T20:52:34.887Z,11.24
2023-04-24T20:55:03.573Z,11.15
2023-04-24T20:57:32.036Z,10.85
2023-04-24T20:59:59.802Z,10.90
2023-04-24T21:02:27.715Z,11.47
2023-04-24T21:04:55.567Z,11.20
2023-04-24T21:07:24.685Z,10.83
2023-04-24T21:09:52.389Z,10.94
2023-04-24T21:12:20.155Z,11.12
2023-04-24T21:14:49.787Z,10.59
2023-04-24T21:17:18.950Z,10.92
2023-04-24T21:19:46.685Z,10.87
2023-04-24T21:22:14.433Z,10.83
2023-04-24T21:24:43.552Z,11.10
2023-04-24T21:27:11.388Z,11.07
2023-04-24T21:29:39.152Z,10.63
2023-04-24T21:32:07.011Z,10.76
2023-04-24T21:34:34.885Z,10.94
2023-04-24T21:37:02.698Z,11.08
2023-04-24T21:39:30.433Z,10.99
2023-04-24T21:41:59.559Z,10.64
2023-04-24T21:44:27.361Z,11.17
2023-04-24T21:46:55.269Z,11.72
2023-04-24T21:49:23.046Z,11.27
2023-04-24T21:51:50.969Z,10.98
2023-04-24T21:54:20.207Z,10.82
2023-04-24T21:56:48.017Z,11.30
2023-04-24T21:59:17.293Z,11.20
2023-04-24T22:01:45.459Z,11.31
2023-04-24T22:04:13.550Z,11.58
2023-04-24T22:06:42.142Z,11.23
2023-04-24T22:09:10.898Z,11.61
2023-04-24T22:11:38.839Z,11.71
2023-04-24T22:14:07.227Z,11.68
2023-04-24T22:16:36.342Z,11.54
2023-04-24T22:19:04.954Z,11.00
2023-04-24T22:21:33.382Z,11.66
2023-04-24T22:24:01.166Z,11.53
2023-04-24T22:26:28.961Z,11.51
2023-04-24T22:28:56.696Z,11.40
2023-04-24T22:31:24.624Z,11.13
2023-04-24T22:33:53.752Z,11.16
2023-04-24T22:36:21.476Z,11.28
2023-04-24T22:38:49.247Z,11.50
2023-04-24T22:41:17.114Z,11.26
2023-04-24T22:43:45.359Z,11.75
2023-04-24T22:46:13.134Z,11.24
2023-04-24T22:48:40.873Z,11.47
2023-04-24T22:51:11.219Z,11.38
2023-04-24T22:53:38.933Z,11.78
2023-04-24T22:56:07.488Z,11.65
2023-04-24T22:58:35.239Z,11.61
2023-04-24T23:01:04.208Z,11.20
2023-04-24T23:03:33.161Z,11.08
2023-04-24T23:06:01.092Z,10.99
2023-04-24T23:08:30.887Z,11.44
2023-04-24T23:10:58.925Z,11.41
2023-04-24T23:13:27.216Z,11.52
2023-04-24T23:15:55.236Z,11.45
2023-04-24T23:18:22.994Z,11.49
2023-04-24T23:20:51.156Z,11.63
2023-04-24T23:23:18.945Z,11.20
2023-04-24T23:25:48.132Z,11.53
2023-04-24T23:28:15.935Z,11.47
2023-04-24T23:30:43.659Z,11.44
2023-04-24T23:33:11.789Z,10.93
2023-04-24T23:35:39.652Z,11.27
2023-04-24T23:38:07.406Z,11.08
2023-04-24T23:40:35.136Z,11.84
2023-04-24T23:43:07.902Z,11.41
2023-04-24T23:45:37.035Z,11.16
2023-04-24T23:48:05.914Z,11.40
2023-04-24T23:50:33.858Z,11.67
2023-04-24T23:53:01.689Z,11.44
2023-04-24T23:55:29.454Z,11.95
2023-04-24T23:57:57.140Z,11.85
